Time,TemperatureF,DewpointF,PressureIn,WindDirection,WindDirectionDegrees,WindSpeedMPH,WindSpeedGustMPH,Humidity,HourlyPrecipIn,Conditions,Clouds,dailyrainin,SoftwareType,DateUTC
2013-01-27 00:02:00,80.0,59.0,-100.00,SSW,196,7.0,16.0,48,0.00,,,0.00,,2013-01-27 00:02:00,
2013-01-27 00:11:00,81.0,60.0,-100.00,SSE,167,5.0,17.0,49,0.00,,,0.00,,2013-01-27 00:11:00,
2013-01-27 00:32:00,81.0,60.0,-100.00,SSE,167,5.0,17.0,49,0.00,,,0.00,,2013-01-27 00:32:00,
2013-01-27 00:42:00,81.0,60.0,-100.00,SSE,167,5.0,17.0,49,0.00,,,0.00,,2013-01-27 00:42:00,
2013-01-27 00:52:00,81.0,60.0,-100.00,SSE,167,5.0,17.0,49,0.00,,,0.00,,2013-01-27 00:52:00,
2013-01-27 01:01:00,81.0,60.0,-100.00,SSE,167,5.0,17.0,49,0.00,,,0.00,,2013-01-27 01:01:00,
2013-01-27 01:11:00,81.0,58.0,-100.00,SSE,161,7.0,20.0,45,0.00,,,0.00,,2013-01-27 01:11:00,
2013-01-27 01:32:00,81.0,58.0,-100.00,SSE,161,7.0,20.0,45,0.00,,,0.00,,2013-01-27 01:32:00,
2013-01-27 01:42:00,81.0,58.0,-100.00,SSE,161,7.0,20.0,45,0.00,,,0.00,,2013-01-27 01:42:00,
2013-01-27 01:52:00,81.0,58.0,-100.00,SSE,161,7.0,20.0,45,0.00,,,0.00,,2013-01-27 01:52:00,
2013-01-27 02:01:00,81.0,58.0,-100.00,SSE,161,7.0,20.0,45,0.00,,,0.00,,2013-01-27 02:01:00,
2013-01-27 02:11:00,71.0,61.0,-100.00,East,84,4.0,21.0,71,0.00,,,0.00,,2013-01-27 02:11:00,
2013-01-27 02:42:00,71.0,61.0,-100.00,East,84,4.0,21.0,71,0.00,,,0.00,,2013-01-27 02:42:00,
2013-01-27 02:52:00,71.0,61.0,-100.00,East,84,4.0,21.0,71,0.00,,,0.00,,2013-01-27 02:52:00,
2013-01-27 03:01:00,71.0,61.0,-100.00,East,84,4.0,21.0,71,0.00,,,0.00,,2013-01-27 03:01:00,
2013-01-27 03:11:00,67.0,63.0,-100.00,SSE,160,5.0,14.0,86,0.00,,,0.00,,2013-01-27 03:11:00,
2013-01-27 03:32:00,67.0,63.0,-100.00,SSE,160,5.0,14.0,86,0.00,,,0.00,,2013-01-27 03:32:00,
2013-01-27 03:42:00,67.0,63.0,-100.00,SSE,160,5.0,14.0,86,0.00,,,0.00,,2013-01-27 03:42:00,
2013-01-27 03:52:00,67.0,63.0,-100.00,SSE,160,5.0,14.0,86,0.00,,,0.00,,2013-01-27 03:52:00,
2013-01-27 04:01:00,67.0,63.0,-100.00,SSE,160,5.0,14.0,86,0.00,,,0.00,,2013-01-27 04:01:00,
2013-01-27 04:11:00,64.0,60.0,-100.00,NNW,333,7.0,18.0,86,0.00,,,0.00,,2013-01-27 04:11:00,
2013-01-27 04:32:00,64.0,60.0,-100.00,NNW,333,7.0,18.0,86,0.00,,,0.00,,2013-01-27 04:32:00,
2013-01-27 04:42:00,64.0,60.0,-100.00,NNW,333,7.0,18.0,86,0.00,,,0.00,,2013-01-27 04:42:00,
2013-01-27 04:52:00,64.0,60.0,-100.00,NNW,333,7.0,18.0,86,0.00,,,0.00,,2013-01-27 04:52:00,
2013-01-27 05:03:00,64.0,60.0,-100.00,NNW,333,7.0,18.0,86,0.00,,,0.00,,2013-01-27 05:03:00,
2013-01-27 05:11:00,66.0,59.0,-100.00,SSE,155,7.0,19.0,78,0.00,,,0.00,,2013-01-27 05:11:00,
2013-01-27 05:32:00,66.0,59.0,-100.00,SSE,155,7.0,19.0,78,0.00,,,0.00,,2013-01-27 05:32:00,
2013-01-27 05:42:00,66.0,59.0,-100.00,SSE,155,7.0,19.0,78,0.00,,,0.00,,2013-01-27 05:42:00,
2013-01-27 05:52:00,66.0,59.0,-100.00,SSE,155,7.0,19.0,78,0.00,,,0.00,,2013-01-27 05:52:00,
2013-01-27 06:01:00,66.0,59.0,-100.00,SSE,155,7.0,19.0,78,0.00,,,0.00,,2013-01-27 06:01:00,
2013-01-27 06:11:00,66.0,59.0,-100.00,SW,215,7.0,18.0,77,0.00,,,0.00,,2013-01-27 06:11:00,
2013-01-27 06:32:00,66.0,59.0,-100.00,SW,215,7.0,18.0,77,0.00,,,0.00,,2013-01-27 06:32:00,
2013-01-27 06:42:00,66.0,59.0,-100.00,SW,215,7.0,18.0,77,0.00,,,0.00,,2013-01-27 06:42:00,
2013-01-27 06:52:00,66.0,59.0,-100.00,SW,215,7.0,18.0,77,0.00,,,0.00,,2013-01-27 06:52:00,
2013-01-27 07:01:00,66.0,59.0,-100.00,SW,215,7.0,18.0,77,0.00,,,0.00,,2013-01-27 07:01:00,
2013-01-27 07:11:00,66.0,60.0,-100.00,SSE,163,8.0,23.0,81,0.00,,,0.00,,2013-01-27 07:11:00,
2013-01-27 07:32:00,66.0,60.0,-100.00,SSE,163,8.0,23.0,81,0.00,,,0.00,,2013-01-27 07:32:00,
2013-01-27 07:42:00,66.0,60.0,-100.00,SSE,163,8.0,23.0,81,0.00,,,0.00,,2013-01-27 07:42:00,
2013-01-27 07:52:00,66.0,60.0,-100.00,SSE,163,8.0,23.0,81,0.00,,,0.00,,2013-01-27 07:52:00,
2013-01-27 08:01:00,66.0,60.0,-100.00,SSE,163,8.0,23.0,81,0.00,,,0.00,,2013-01-27 08:01:00,
2013-01-27 08:11:00,65.0,58.0,-100.00,SSE,157,7.0,21.0,79,0.00,,,0.00,,2013-01-27 08:11:00,
2013-01-27 08:32:00,65.0,58.0,-100.00,SSE,157,7.0,21.0,79,0.00,,,0.00,,2013-01-27 08:32:00,
2013-01-27 08:42:00,65.0,58.0,-100.00,SSE,157,7.0,21.0,79,0.00,,,0.00,,2013-01-27 08:42:00,
2013-01-27 08:52:00,65.0,58.0,-100.00,SSE,157,7.0,21.0,79,0.00,,,0.00,,2013-01-27 08:52:00,
2013-01-27 09:02:00,65.0,58.0,-100.00,SSE,157,7.0,21.0,79,0.00,,,0.00,,2013-01-27 09:02:00,
2013-01-27 09:11:00,65.0,59.0,-100.00,SSE,159,8.0,21.0,82,0.00,,,0.00,,2013-01-27 09:11:00,
2013-01-27 09:32:00,65.0,59.0,-100.00,SSE,159,8.0,21.0,82,0.00,,,0.00,,2013-01-27 09:32:00,
2013-01-27 09:42:00,65.0,59.0,-100.00,SSE,159,8.0,21.0,82,0.00,,,0.00,,2013-01-27 09:42:00,
2013-01-27 09:52:00,65.0,59.0,-100.00,SSE,159,8.0,21.0,82,0.00,,,0.00,,2013-01-27 09:52:00,
2013-01-27 10:01:00,65.0,59.0,-100.00,SSE,159,8.0,21.0,82,0.00,,,0.00,,2013-01-27 10:01:00,
2013-01-27 10:11:00,64.0,57.0,-100.00,SSE,157,7.0,25.0,78,0.00,,,0.00,,2013-01-27 10:11:00,
2013-01-27 10:32:00,64.0,57.0,-100.00,SSE,157,7.0,25.0,78,0.00,,,0.00,,2013-01-27 10:32:00,
2013-01-27 10:42:00,64.0,57.0,-100.00,SSE,157,7.0,25.0,78,0.00,,,0.00,,2013-01-27 10:42:00,
2013-01-27 10:52:00,64.0,57.0,-100.00,SSE,157,7.0,25.0,78,0.00,,,0.00,,2013-01-27 10:52:00,
2013-01-27 11:01:00,64.0,57.0,-100.00,SSE,157,7.0,25.0,78,0.00,,,0.00,,2013-01-27 11:01:00,
2013-01-27 11:11:00,64.0,57.0,-100.00,SSE,160,8.0,21.0,79,0.00,,,0.00,,2013-01-27 11:11:00,
2013-01-27 11:32:00,64.0,57.0,-100.00,SSE,160,8.0,21.0,79,0.00,,,0.00,,2013-01-27 11:32:00,
2013-01-27 11:42:00,64.0,57.0,-100.00,SSE,160,8.0,21.0,79,0.00,,,0.00,,2013-01-27 11:42:00,
2013-01-27 11:52:00,64.0,57.0,-100.00,SSE,160,8.0,21.0,79,0.00,,,0.00,,2013-01-27 11:52:00,
2013-01-27 12:02:00,64.0,57.0,-100.00,SSE,160,8.0,21.0,79,0.00,,,0.00,,2013-01-27 12:02:00,
2013-01-27 12:11:00,66.0,60.0,-100.00,SSE,164,8.0,20.0,80,0.00,,,0.00,,2013-01-27 12:11:00,
2013-01-27 12:33:00,66.0,60.0,-100.00,SSE,164,8.0,20.0,80,0.00,,,0.00,,2013-01-27 12:33:00,
2013-01-27 12:42:00,66.0,60.0,-100.00,SSE,164,8.0,20.0,80,0.00,,,0.00,,2013-01-27 12:42:00,
2013-01-27 12:52:00,66.0,60.0,-100.00,SSE,164,8.0,20.0,80,0.00,,,0.00,,2013-01-27 12:52:00,
2013-01-27 13:02:00,66.0,60.0,-100.00,SSE,164,8.0,20.0,80,0.00,,,0.00,,2013-01-27 13:02:00,
2013-01-27 13:11:00,66.0,59.0,-100.00,SSE,160,9.0,26.0,79,0.00,,,0.00,,2013-01-27 13:11:00,
2013-01-27 13:32:00,66.0,59.0,-100.00,SSE,160,9.0,26.0,79,0.00,,,0.00,,2013-01-27 13:32:00,
2013-01-27 13:42:00,66.0,59.0,-100.00,SSE,160,9.0,26.0,79,0.00,,,0.00,,2013-01-27 13:42:00,
2013-01-27 13:52:00,66.0,59.0,-100.00,SSE,160,9.0,26.0,79,0.00,,,0.00,,2013-01-27 13:52:00,
2013-01-27 14:01:00,66.0,59.0,-100.00,SSE,160,9.0,26.0,79,0.00,,,0.00,,2013-01-27 14:01:00,
2013-01-27 14:11:00,66.0,60.0,-100.00,NNE,24,11.0,29.0,82,0.00,,,0.00,,2013-01-27 14:11:00,
2013-01-27 14:53:00,66.0,60.0,-100.00,NNE,24,11.0,29.0,82,0.00,,,0.00,,2013-01-27 14:53:00,
2013-01-27 15:01:00,66.0,60.0,-100.00,NNE,24,11.0,29.0,82,0.00,,,0.00,,2013-01-27 15:01:00,
2013-01-27 15:11:00,66.0,60.0,-100.00,SSE,167,10.0,28.0,82,0.00,,,0.00,,2013-01-27 15:11:00,
2013-01-27 15:32:00,66.0,60.0,-100.00,SSE,167,10.0,28.0,82,0.00,,,0.00,,2013-01-27 15:32:00,
2013-01-27 15:42:00,66.0,60.0,-100.00,SSE,167,10.0,28.0,82,0.00,,,0.00,,2013-01-27 15:42:00,
2013-01-27 15:52:00,66.0,60.0,-100.00,SSE,167,10.0,28.0,82,0.00,,,0.00,,2013-01-27 15:52:00,
2013-01-27 16:01:00,66.0,60.0,-100.00,SSE,167,10.0,28.0,82,0.00,,,0.00,,2013-01-27 16:01:00,
2013-01-27 16:11:00,66.0,61.0,-100.00,SSE,159,8.0,27.0,84,0.00,,,0.00,,2013-01-27 16:11:00,
2013-01-27 16:33:00,66.0,61.0,-100.00,SSE,159,8.0,27.0,84,0.00,,,0.00,,2013-01-27 16:33:00,
2013-01-27 16:42:00,66.0,61.0,-100.00,SSE,159,8.0,27.0,84,0.00,,,0.00,,2013-01-27 16:42:00,
2013-01-27 16:53:00,66.0,61.0,-100.00,SSE,159,8.0,27.0,84,0.00,,,0.00,,2013-01-27 16:53:00,
2013-01-27 17:01:00,66.0,61.0,-100.00,SSE,159,8.0,27.0,84,0.00,,,0.00,,2013-01-27 17:01:00,
2013-01-27 17:11:00,67.0,61.0,-100.00,SSE,159,7.0,24.0,82,0.00,,,0.00,,2013-01-27 17:11:00,
2013-01-27 17:32:00,67.0,61.0,-100.00,SSE,159,7.0,24.0,82,0.00,,,0.00,,2013-01-27 17:32:00,
2013-01-27 17:42:00,67.0,61.0,-100.00,SSE,159,7.0,24.0,82,0.00,,,0.00,,2013-01-27 17:42:00,
2013-01-27 17:52:00,67.0,61.0,-100.00,SSE,159,7.0,24.0,82,0.00,,,0.00,,2013-01-27 17:52:00,
2013-01-27 18:02:00,67.0,61.0,-100.00,SSE,159,7.0,24.0,82,0.00,,,0.00,,2013-01-27 18:02:00,
2013-01-27 18:11:00,62.0,62.0,-100.00,South,173,9.0,30.0,99,0.54,,,0.54,,2013-01-27 18:11:00,
2013-01-27 18:32:00,62.0,62.0,-100.00,South,173,9.0,30.0,99,0.54,,,0.54,,2013-01-27 18:32:00,
2013-01-27 18:42:00,62.0,62.0,-100.00,South,173,9.0,30.0,99,0.54,,,0.54,,2013-01-27 18:42:00,
2013-01-27 18:52:00,62.0,62.0,-100.00,South,173,9.0,30.0,99,0.54,,,0.54,,2013-01-27 18:52:00,
2013-01-27 19:01:00,62.0,62.0,-100.00,South,173,9.0,30.0,99,0.54,,,0.54,,2013-01-27 19:01:00,
2013-01-27 19:11:00,62.0,60.0,-100.00,SSE,161,4.0,21.0,94,0.00,,,0.54,,2013-01-27 19:11:00,
2013-01-27 19:33:00,62.0,60.0,-100.00,SSE,161,4.0,21.0,94,0.00,,,0.54,,2013-01-27 19:33:00,
2013-01-27 19:42:00,62.0,60.0,-100.00,SSE,161,4.0,21.0,94,0.00,,,0.54,,2013-01-27 19:42:00,
2013-01-27 19:52:00,62.0,60.0,-100.00,SSE,161,4.0,21.0,94,0.00,,,0.54,,2013-01-27 19:52:00,
2013-01-27 20:02:00,62.0,60.0,-100.00,SSE,161,4.0,21.0,94,0.00,,,0.54,,2013-01-27 20:02:00,
2013-01-27 20:11:00,67.0,60.0,-100.00,South,169,8.0,18.0,79,0.00,,,0.54,,2013-01-27 20:11:00,
2013-01-27 20:33:00,67.0,60.0,-100.00,South,169,8.0,18.0,79,0.00,,,0.54,,2013-01-27 20:33:00,
2013-01-27 20:42:00,67.0,60.0,-100.00,South,169,8.0,18.0,79,0.00,,,0.54,,2013-01-27 20:42:00,
2013-01-27 20:52:00,67.0,60.0,-100.00,South,169,8.0,18.0,79,0.00,,,0.54,,2013-01-27 20:52:00,
2013-01-27 21:01:00,67.0,60.0,-100.00,South,169,8.0,18.0,79,0.00,,,0.54,,2013-01-27 21:01:00,
2013-01-27 21:11:00,70.0,64.0,-100.00,South,173,7.0,23.0,81,0.01,,,0.55,,2013-01-27 21:11:00,
2013-01-27 21:33:00,70.0,64.0,-100.00,South,173,7.0,23.0,81,0.01,,,0.55,,2013-01-27 21:33:00,
2013-01-27 21:43:00,70.0,64.0,-100.00,South,173,7.0,23.0,81,0.01,,,0.55,,2013-01-27 21:43:00,
2013-01-27 21:52:00,70.0,64.0,-100.00,South,173,7.0,23.0,81,0.01,,,0.55,,2013-01-27 21:52:00,
2013-01-27 22:01:00,70.0,64.0,-100.00,South,173,7.0,23.0,81,0.01,,,0.55,,2013-01-27 22:01:00,
2013-01-27 23:11:00,62.0,62.0,-100.00,North,10,3.0,9.0,99,-99.99,,,1.15,,2013-01-27 23:11:00,
2013-01-27 23:32:00,62.0,62.0,-100.00,North,10,3.0,9.0,99,-99.99,,,1.15,,2013-01-27 23:32:00,
2013-01-27 23:42:00,62.0,62.0,-100.00,North,10,3.0,9.0,99,-99.99,,,1.15,,2013-01-27 23:42:00,
2013-01-27 23:53:00,62.0,62.0,-100.00,North,10,3.0,9.0,99,-99.99,,,1.15,,2013-01-27 23:53:00,